22:30
Airports
Links
Donate
Help keep this website running!
PayPal
Bitcoin
METAR
KCRG 192153Z 11008KT 10SM CLR 29/20 A2994 RMK AO2 SLP139 T02890200 $
Current Weather Conditions at KCRG
VFR 21:53:00 19-09-17
Automated station
Altimeter:29.94 hg
Temp:28.9°c 82°f
Dew point:20.0°c 68°f
Wind:8 knots, 9.2 mph, 4 m/s, from 110°
Visibility:10.0 statute miles
(CLR) Clear
Past METAR reports
VFR 20:53:00 19-09-17
Automated station
Altimeter:29.94 hg
Temp:29.4°c 84°f
Dew point:19.4°c 66°f
Wind:8 knots, 9.2 mph, 4 m/s, from 90°
Visibility:10.0 statute miles
(CLR) Clear
KCRG 192053Z 09008KT 10SM CLR 29/19 A2994 RMK AO2 SLP137 6//// T02940194 $
VFR 19:57:00 19-09-17
Automated station
Altimeter:29.94 hg
Temp:30.0°c 86°f
Dew point:20.0°c 68°f
Wind:7 knots, 8.1 mph, 4 m/s, from 110°
Visibility:7.0 statute miles
(CLR) Clear
KCRG 191957Z 11007KT 7SM CLR 30/20 A2994 RMK AO2 T03000200 $
VFR 18:53:00 19-09-17
Automated station
Altimeter:29.96 hg
Temp:30.6°c 86°f
Dew point:19.4°c 66°f
Wind:3 knots, 3.5 mph, 2 m/s,
Variable direction
Visibility:10.0 statute miles
9500(FEW) A few
KCRG 191853Z VRB03KT 10SM FEW095 31/19 A2996 RMK AO2 SLP144 T03060194 PNO $
VFR 17:53:00 19-09-17
Automated station
Altimeter:29.98 hg
Temp:30.6°c 86°f
Dew point:20.0°c 68°f
Wind:6 knots, 6.9 mph, 3 m/s, from 340°
Visibility:10.0 statute miles
8000(SCT) Scattered
KCRG 191753Z 34006KT 10SM SCT080 31/20 A2998 RMK AO2 SLP150 6//// T03060200 10306 20222 58014 PNO $
VFR 16:53:00 19-09-17
Automated station
Altimeter:30.00 hg
Temp:30.0°c 86°f
Dew point:18.9°c 64°f
Wind:3 knots, 3.5 mph, 2 m/s,
Variable direction
Visibility:10.0 statute miles
(CLR) Clear
KCRG 191653Z VRB03KT 10SM CLR 30/19 A3000 RMK AO2 SLP157 T03000189 PNO $
TAF
KCRG 191817Z 1918/2018 05006KT P6SM SCT050 FM200000 00000KT P6SM SCT250
Forecast at KCRG
18:00 19-09-17 to 00:00 20-09-17
Wind:6 Knots from 50°
Visibility:6.21 statute miles
5000SCT Scattered
FM 00:00 20-09-17 to 18:00 20-09-17
Wind:0 Knots Variable direction
Visibility:6.21 statute miles
25000SCT Scattered